Paraparaumu (NZPP)

Aerodrome — Elev 22
New Zealand
S040.54.16.999 E174.59.21.001
Loading chart...

Current Weather

NZPP 211700Z 04010KT 2000 DZ BKN007 10/09 Q0981 RMK ALT VATSIM USE ONLY

Published 1 hours 47 minutes ago

Airport Activity

Loading chart...
Loading chart...

Positions

CallsignRadio Name / Freq / Voice Room / TypeFrequencyVoice RoomType
NZCH-T_CTR Christchurch Control
123.700
nzch-t_ctr
123.700nzch-t_ctr
NZWN_APP Wellington Approach
119.300
nzwn_app
119.300nzwn_app
NZWN_DEP Wellington Approach
122.300
nzwn_dep
122.300nzwn_dep
UNICOM NZZC UNICOM
122.800
unicom_nzzc
122.800unicom_nzzc

Charts